Terminal Aerodrome Forecast
Issued by NWS Kansas City/Pleasant Hill, MO

Home | Current Version | Previous Version | Text Only | Print | Product List | Glossary On
Versions: 1 2 3 4 5 6 7 8 9 10 11 12 13 14 15 16
000
FTUS43 KEAX 300100 AAA
TAFMCI
TAF AMD
KMCI 300147Z 3002/3024 17009KT P6SM VCTS FEW040CB FEW150 SCT250
     FM300300 VRB05KT P6SM SCT060
     FM301000 VRB02KT 4SM BR FEW001
     FM301400 29006KT P6SM SCT200=

USA.gov is the U.S. government's official web portal to all federal, state and local government web resources and services.